Time;durP1;ratioP1;P1;durP2;ratioP2;P2;SDS_P1;SDS_P2;PMS_P1;PMS_P2;Temp;Humidity;BMP_temperature;BMP_pressure;BME280_temperature;BME280_humidity;BME280_pressure;Samples;Min_cycle;Max_cycle;Signal;HPM_P1;HPM_P2
2022/11/03 00:00:59;;;;;;;4.33;2.50;;;;;;;;;;4912006;29;20209;-61
2022/11/03 00:03:28;;;;;;;4.23;2.23;;;;;;;;;;4908715;29;20312;-62
2022/11/03 00:06:07;;;;;;;8.23;3.77;;;;;;;;;;4905282;29;20205;-62
2022/11/03 00:08:38;;;;;;;6.80;4.17;;;;;;;;;;4910611;29;20803;-61
2022/11/03 00:11:07;;;;;;;6.93;3.43;;;;;;;;;;4909905;29;20307;-61
2022/11/03 00:13:34;;;;;;;4.57;2.60;;;;;;;;;;4910658;29;20239;-62
2022/11/03 00:16:02;;;;;;;10.10;2.93;;;;;;;;;;4905479;29;20209;-61
2022/11/03 00:18:30;;;;;;;4.53;2.50;;;;;;;;;;4906580;29;20220;-61
2022/11/03 00:20:58;;;;;;;5.40;2.40;;;;;;;;;;4903954;29;20215;-62
2022/11/03 00:23:26;;;;;;;2.27;2.07;;;;;;;;;;4907793;29;20205;-61
2022/11/03 00:25:53;;;;;;;2.07;1.97;;;;;;;;;;4906116;29;20209;-62
2022/11/03 00:28:20;;;;;;;2.00;1.90;;;;;;;;;;4907022;29;20227;-62
2022/11/03 00:30:47;;;;;;;6.03;2.17;;;;;;;;;;4906588;29;20212;-61
2022/11/03 00:33:14;;;;;;;3.93;2.30;;;;;;;;;;4908678;29;20644;-62
2022/11/03 00:35:43;;;;;;;4.13;1.90;;;;;;;;;;4907966;29;21415;-62
2022/11/03 00:38:10;;;;;;;3.43;1.43;;;;;;;;;;4902832;29;20205;-61
2022/11/03 00:40:37;;;;;;;3.33;1.97;;;;;;;;;;4907536;29;20243;-61
2022/11/03 00:43:04;;;;;;;1.90;1.80;;;;;;;;;;4911712;29;20231;-62
2022/11/03 00:45:31;;;;;;;2.23;1.60;;;;;;;;;;4910491;29;20238;-62
2022/11/03 00:50:44;;;;;;;4.67;1.97;;;;;;;;;;4909437;29;20532;-61
2022/11/03 00:53:11;;;;;;;3.90;2.17;;;;;;;;;;4912338;29;20208;-61
2022/11/03 00:55:38;;;;;;;2.40;1.40;;;;;;;;;;4912124;29;20228;-62
2022/11/03 00:58:05;;;;;;;12.30;2.17;;;;;;;;;;4906786;29;20237;-61
2022/11/03 01:00:32;;;;;;;2.17;1.93;;;;;;;;;;4909174;29;20216;-62
2022/11/03 01:02:59;;;;;;;1.87;1.50;;;;;;;;;;4910705;29;20219;-62
2022/11/03 01:08:12;;;;;;;1.33;1.30;;;;;;;;;;4908918;29;20203;-61
2022/11/03 01:11:42;;;;;;;1.70;1.43;;;;;;;;;;4908504;29;20219;-61
2022/11/03 01:13:27;;;;;;;1.33;1.00;;;;;;;;;;4909022;29;20237;-61
2022/11/03 01:15:57;;;;;;;3.93;1.40;;;;;;;;;;4911946;29;20235;-61
2022/11/03 01:18:24;;;;;;;2.90;1.40;;;;;;;;;;4911937;29;20209;-61
2022/11/03 01:20:55;;;;;;;1.70;1.60;;;;;;;;;;4910797;29;20208;-61
2022/11/03 01:23:24;;;;;;;4.10;1.40;;;;;;;;;;4908632;29;20312;-61
2022/11/03 01:25:51;;;;;;;17.10;3.03;;;;;;;;;;4908611;29;20216;-62
2022/11/03 01:28:18;;;;;;;2.90;2.07;;;;;;;;;;4904719;29;20220;-61
2022/11/03 01:30:45;;;;;;;2.30;2.00;;;;;;;;;;4904052;29;20652;-61
2022/11/03 01:33:13;;;;;;;3.43;1.80;;;;;;;;;;4905476;29;20592;-62
2022/11/03 01:35:40;;;;;;;1.93;1.83;;;;;;;;;;4907208;29;20268;-61
2022/11/03 01:38:07;;;;;;;4.37;1.67;;;;;;;;;;4908778;29;20445;-61
2022/11/03 01:40:36;;;;;;;8.80;1.90;;;;;;;;;;4903563;29;20209;-61
2022/11/03 01:43:16;;;;;;;2.63;1.87;;;;;;;;;;4898752;29;20209;-61
2022/11/03 01:45:43;;;;;;;2.50;2.23;;;;;;;;;;4906125;29;20240;-61
2022/11/03 01:48:12;;;;;;;2.20;1.87;;;;;;;;;;4907322;29;20222;-61
2022/11/03 01:50:40;;;;;;;1.80;1.70;;;;;;;;;;4911744;29;20229;-61
2022/11/03 01:53:08;;;;;;;2.60;2.37;;;;;;;;;;4904755;29;20215;-61
2022/11/03 01:55:38;;;;;;;1.80;1.73;;;;;;;;;;4907966;29;20680;-61
2022/11/03 01:58:07;;;;;;;3.60;1.97;;;;;;;;;;4906653;29;20232;-61
2022/11/03 02:00:35;;;;;;;2.53;1.47;;;;;;;;;;4907166;29;20675;-61
2022/11/03 02:03:02;;;;;;;2.00;1.37;;;;;;;;;;4906371;29;20227;-61
2022/11/03 02:05:30;;;;;;;2.90;1.27;;;;;;;;;;4908543;29;20208;-61
2022/11/03 02:07:59;;;;;;;6.87;1.53;;;;;;;;;;4907301;29;20208;-61
2022/11/03 02:10:26;;;;;;;5.37;1.73;;;;;;;;;;4910110;29;20976;-61
2022/11/03 02:12:55;;;;;;;2.63;1.37;;;;;;;;;;4911125;29;20571;-61
2022/11/03 02:15:23;;;;;;;1.20;1.20;;;;;;;;;;4911194;29;20235;-61
2022/11/03 02:17:51;;;;;;;2.40;1.90;;;;;;;;;;4911868;29;20216;-61
2022/11/03 02:20:20;;;;;;;3.07;2.17;;;;;;;;;;4911436;29;20263;-60
2022/11/03 02:23:01;;;;;;;2.37;2.17;;;;;;;;;;4910568;29;20219;-61
2022/11/03 02:25:35;;;;;;;4.30;1.90;;;;;;;;;;4910854;29;20695;-61
2022/11/03 02:28:03;;;;;;;1.63;1.53;;;;;;;;;;4910643;29;20363;-60
2022/11/03 02:30:35;;;;;;;4.10;1.70;;;;;;;;;;4910495;29;20213;-60
2022/11/03 02:33:04;;;;;;;3.60;1.83;;;;;;;;;;4908767;29;20676;-61
2022/11/03 02:35:35;;;;;;;2.17;1.77;;;;;;;;;;4910789;29;20235;-61
2022/11/03 02:38:04;;;;;;;2.90;1.50;;;;;;;;;;4910358;29;20212;-61
2022/11/03 02:40:33;;;;;;;6.53;1.80;;;;;;;;;;4910912;29;20212;-61
2022/11/03 02:43:02;;;;;;;6.40;1.80;;;;;;;;;;4911259;29;20216;-61
2022/11/03 02:45:30;;;;;;;3.30;1.70;;;;;;;;;;4910713;29;20224;-61
2022/11/03 02:47:58;;;;;;;3.87;2.10;;;;;;;;;;4911308;29;20219;-61
2022/11/03 02:50:27;;;;;;;3.60;1.70;;;;;;;;;;4911416;29;20204;-61
2022/11/03 02:52:54;;;;;;;1.80;1.70;;;;;;;;;;4910759;29;20287;-61
2022/11/03 02:55:24;;;;;;;1.60;1.50;;;;;;;;;;4910846;29;20232;-61
2022/11/03 02:57:53;;;;;;;1.53;1.43;;;;;;;;;;4910998;29;20263;-61
2022/11/03 03:00:22;;;;;;;1.50;1.40;;;;;;;;;;4909075;29;20208;-60
2022/11/03 03:02:53;;;;;;;1.10;1.10;;;;;;;;;;4910423;29;20225;-61
2022/11/03 03:05:21;;;;;;;2.40;1.53;;;;;;;;;;4907865;29;20209;-60
2022/11/03 03:07:51;;;;;;;1.27;1.27;;;;;;;;;;4909632;29;20220;-61
2022/11/03 03:10:19;;;;;;;4.43;1.53;;;;;;;;;;4908593;29;20589;-60
2022/11/03 03:12:48;;;;;;;1.20;1.00;;;;;;;;;;4908993;29;20451;-61
2022/11/03 03:15:16;;;;;;;5.40;1.67;;;;;;;;;;4908629;29;20632;-60
2022/11/03 03:17:49;;;;;;;1.60;1.50;;;;;;;;;;4908679;29;20213;-61
2022/11/03 03:20:21;;;;;;;1.40;1.17;;;;;;;;;;4910673;29;20211;-60
2022/11/03 03:22:50;;;;;;;1.47;1.37;;;;;;;;;;4909753;29;20226;-61
2022/11/03 03:25:19;;;;;;;5.60;1.57;;;;;;;;;;4908531;29;20211;-61
2022/11/03 03:27:49;;;;;;;4.80;1.57;;;;;;;;;;4908148;29;20217;-61
2022/11/03 03:30:17;;;;;;;9.27;1.37;;;;;;;;;;4908594;29;20231;-61
2022/11/03 03:32:47;;;;;;;1.20;1.20;;;;;;;;;;4908418;29;20349;-61
2022/11/03 03:35:16;;;;;;;10.53;1.23;;;;;;;;;;4908679;29;20240;-60
2022/11/03 03:40:29;;;;;;;3.90;1.70;;;;;;;;;;4908774;29;20215;-61
2022/11/03 03:42:57;;;;;;;0.97;0.90;;;;;;;;;;4907653;29;20231;-61
2022/11/03 03:45:25;;;;;;;5.67;1.43;;;;;;;;;;4909342;29;20200;-61
2022/11/03 03:47:54;;;;;;;5.30;1.30;;;;;;;;;;4908495;29;20207;-60
2022/11/03 03:50:21;;;;;;;4.07;1.67;;;;;;;;;;4906823;29;20212;-61
2022/11/03 03:52:49;;;;;;;1.30;1.20;;;;;;;;;;4908943;29;20861;-61
2022/11/03 03:55:17;;;;;;;1.80;1.37;;;;;;;;;;4908216;29;20609;-61
2022/11/03 03:57:45;;;;;;;9.90;1.80;;;;;;;;;;4908213;29;20319;-61
2022/11/03 04:00:14;;;;;;;3.70;1.13;;;;;;;;;;4907478;29;20204;-63
2022/11/03 04:02:43;;;;;;;1.57;1.47;;;;;;;;;;4908137;29;20255;-61
2022/11/03 04:05:11;;;;;;;3.17;1.33;;;;;;;;;;4907946;29;20217;-61
2022/11/03 04:07:47;;;;;;;1.50;1.40;;;;;;;;;;4908840;29;20207;-61
2022/11/03 04:10:14;;;;;;;1.50;1.40;;;;;;;;;;4907752;29;20219;-61
2022/11/03 04:23:42;;;;;;;3.47;1.17;;;;;;;;;;4911954;29;20729;-61
2022/11/03 04:26:12;;;;;;;1.47;1.30;;;;;;;;;;4911091;29;20211;-61
2022/11/03 04:28:39;;;;;;;1.90;1.33;;;;;;;;;;4911671;29;20234;-61
2022/11/03 04:31:10;;;;;;;1.67;1.20;;;;;;;;;;4911326;29;20298;-60
2022/11/03 04:33:38;;;;;;;1.40;1.07;;;;;;;;;;4911554;29;20252;-61
2022/11/03 04:36:10;;;;;;;0.97;0.97;;;;;;;;;;4911413;29;20235;-61
2022/11/03 04:38:37;;;;;;;2.80;1.10;;;;;;;;;;4911479;29;20203;-61
2022/11/03 04:41:07;;;;;;;2.50;1.00;;;;;;;;;;4911023;29;20230;-61
2022/11/03 04:43:35;;;;;;;2.20;1.37;;;;;;;;;;4911826;29;20212;-61
2022/11/03 04:46:02;;;;;;;3.50;1.47;;;;;;;;;;4910544;29;20466;-61
2022/11/03 04:48:30;;;;;;;3.03;1.40;;;;;;;;;;4911484;29;20220;-60
2022/11/03 04:50:58;;;;;;;8.60;1.47;;;;;;;;;;4911652;29;20215;-61
2022/11/03 04:53:29;;;;;;;0.87;0.87;;;;;;;;;;4911847;29;20204;-60
2022/11/03 04:55:56;;;;;;;3.37;1.20;;;;;;;;;;4911724;29;20710;-61
2022/11/03 04:58:25;;;;;;;4.63;1.20;;;;;;;;;;4911743;29;20246;-61
2022/11/03 05:00:53;;;;;;;5.67;1.17;;;;;;;;;;4910868;29;20256;-61
2022/11/03 05:03:22;;;;;;;2.20;1.13;;;;;;;;;;4911890;29;20208;-61
2022/11/03 05:05:49;;;;;;;14.70;1.37;;;;;;;;;;4911016;29;20208;-60
2022/11/03 05:08:17;;;;;;;1.63;1.53;;;;;;;;;;4910964;29;20217;-61
2022/11/03 05:10:46;;;;;;;2.37;1.33;;;;;;;;;;4910646;29;20227;-61
2022/11/03 05:13:17;;;;;;;2.07;1.47;;;;;;;;;;4911477;29;20207;-61
2022/11/03 05:15:45;;;;;;;1.03;1.03;;;;;;;;;;4908585;29;20239;-61
2022/11/03 05:18:20;;;;;;;1.17;1.03;;;;;;;;;;4912070;29;20218;-61
2022/11/03 05:20:49;;;;;;;1.13;1.13;;;;;;;;;;4911338;29;20218;-61
2022/11/03 05:23:16;;;;;;;1.00;1.00;;;;;;;;;;4911355;29;20223;-61
2022/11/03 05:25:44;;;;;;;4.00;1.17;;;;;;;;;;4908409;29;20268;-61
2022/11/03 05:28:26;;;;;;;2.17;1.50;;;;;;;;;;4909918;29;20214;-61
2022/11/03 05:30:53;;;;;;;1.43;1.33;;;;;;;;;;4911884;29;20208;-60
2022/11/03 05:33:22;;;;;;;1.27;1.17;;;;;;;;;;4910762;29;20910;-60
2022/11/03 05:35:49;;;;;;;1.87;1.13;;;;;;;;;;4911014;29;20240;-61
2022/11/03 05:38:19;;;;;;;2.20;0.90;;;;;;;;;;4911166;29;20207;-60
2022/11/03 05:40:47;;;;;;;3.00;1.07;;;;;;;;;;4909839;29;20223;-61
2022/11/03 05:43:15;;;;;;;4.30;1.50;;;;;;;;;;4910586;29;20200;-60
2022/11/03 05:45:43;;;;;;;2.23;1.10;;;;;;;;;;4911150;29;20212;-60
2022/11/03 05:48:17;;;;;;;1.13;0.83;;;;;;;;;;4911107;29;20320;-60
2022/11/03 05:50:44;;;;;;;3.60;0.90;;;;;;;;;;4911190;29;20213;-61
2022/11/03 05:53:26;;;;;;;2.07;1.60;;;;;;;;;;4907751;29;20228;-61
2022/11/03 05:55:54;;;;;;;1.00;0.97;;;;;;;;;;4910617;29;20235;-61
2022/11/03 05:58:24;;;;;;;1.10;1.00;;;;;;;;;;4911089;29;20285;-61
2022/11/03 06:00:53;;;;;;;1.57;1.40;;;;;;;;;;4910772;29;20216;-61
2022/11/03 06:03:22;;;;;;;2.47;1.50;;;;;;;;;;4909047;29;20262;-61
2022/11/03 06:05:49;;;;;;;2.63;1.33;;;;;;;;;;4908045;29;20601;-61
2022/11/03 06:08:20;;;;;;;2.30;1.30;;;;;;;;;;4909976;29;20264;-61
2022/11/03 06:10:49;;;;;;;2.00;1.53;;;;;;;;;;4908049;29;20220;-60
2022/11/03 06:13:19;;;;;;;1.17;1.17;;;;;;;;;;4909189;29;20238;-61
2022/11/03 06:15:46;;;;;;;1.13;1.13;;;;;;;;;;4909649;29;20228;-60
2022/11/03 06:18:16;;;;;;;3.17;1.60;;;;;;;;;;4910196;29;20212;-61
2022/11/03 06:20:45;;;;;;;2.30;1.40;;;;;;;;;;4907778;29;20213;-60
2022/11/03 06:23:12;;;;;;;1.73;1.60;;;;;;;;;;4908162;29;20221;-61
2022/11/03 06:25:41;;;;;;;4.10;1.00;;;;;;;;;;4906919;29;20212;-61
2022/11/03 06:28:11;;;;;;;2.80;1.43;;;;;;;;;;4902216;29;20226;-61
2022/11/03 06:30:41;;;;;;;4.23;1.30;;;;;;;;;;4907115;29;20206;-59
2022/11/03 06:33:13;;;;;;;1.40;1.30;;;;;;;;;;4908261;29;20257;-61
2022/11/03 06:35:42;;;;;;;4.77;1.30;;;;;;;;;;4910865;29;20232;-61
2022/11/03 06:38:13;;;;;;;3.67;1.80;;;;;;;;;;4898192;29;20220;-61
2022/11/03 06:40:40;;;;;;;1.40;1.40;;;;;;;;;;4906611;29;20211;-61
2022/11/03 06:43:14;;;;;;;1.47;1.00;;;;;;;;;;4910212;29;20244;-60
2022/11/03 06:45:47;;;;;;;1.57;1.47;;;;;;;;;;4911344;29;20204;-61
2022/11/03 06:48:16;;;;;;;5.33;1.47;;;;;;;;;;4910895;29;20334;-60
2022/11/03 06:50:44;;;;;;;6.03;1.33;;;;;;;;;;4911101;29;20214;-61
2022/11/03 06:53:12;;;;;;;3.07;2.10;;;;;;;;;;4909503;29;20214;-61
2022/11/03 06:55:40;;;;;;;2.00;1.80;;;;;;;;;;4909857;29;20242;-61
2022/11/03 06:58:12;;;;;;;2.10;1.80;;;;;;;;;;4894459;29;20432;-60
2022/11/03 07:00:41;;;;;;;2.23;1.53;;;;;;;;;;4896873;29;20225;-62
2022/11/03 07:03:09;;;;;;;11.23;1.60;;;;;;;;;;4911382;29;20255;-62
2022/11/03 07:05:37;;;;;;;3.60;2.40;;;;;;;;;;4911109;29;20380;-61
2022/11/03 07:08:13;;;;;;;3.73;1.80;;;;;;;;;;4909801;29;20218;-61
2022/11/03 07:10:40;;;;;;;2.50;1.57;;;;;;;;;;4907582;29;20255;-61
2022/11/03 07:13:13;;;;;;;1.77;1.67;;;;;;;;;;4911076;29;20221;-61
2022/11/03 07:15:42;;;;;;;3.43;1.90;;;;;;;;;;4910862;29;20234;-61
2022/11/03 07:18:15;;;;;;;3.60;2.20;;;;;;;;;;4911155;29;20261;-62
2022/11/03 07:20:42;;;;;;;3.43;2.00;;;;;;;;;;4911124;29;20212;-62
2022/11/03 07:23:13;;;;;;;13.23;2.13;;;;;;;;;;4910913;29;20219;-61
2022/11/03 07:25:40;;;;;;;2.97;2.23;;;;;;;;;;4911108;29;20226;-59
2022/11/03 07:28:11;;;;;;;1.93;1.67;;;;;;;;;;4910907;29;20226;-60
2022/11/03 07:30:38;;;;;;;2.60;2.40;;;;;;;;;;4910902;29;20666;-60
2022/11/03 07:33:11;;;;;;;4.83;2.00;;;;;;;;;;4910213;29;20239;-61
2022/11/03 07:35:41;;;;;;;3.10;1.87;;;;;;;;;;4908054;29;20223;-61
2022/11/03 07:38:11;;;;;;;5.13;2.00;;;;;;;;;;4905350;29;20299;-60
2022/11/03 07:40:40;;;;;;;1.50;1.40;;;;;;;;;;4910422;29;20220;-61
2022/11/03 07:43:15;;;;;;;3.60;2.03;;;;;;;;;;4910438;29;20211;-62
2022/11/03 07:45:43;;;;;;;1.53;1.43;;;;;;;;;;4910786;29;20206;-62
2022/11/03 07:48:15;;;;;;;5.17;2.67;;;;;;;;;;4910463;29;20225;-60
2022/11/03 07:50:43;;;;;;;6.53;2.30;;;;;;;;;;4910875;29;20955;-60
2022/11/03 07:53:12;;;;;;;4.30;2.33;;;;;;;;;;4914223;29;20222;-60
2022/11/03 07:55:41;;;;;;;4.37;2.60;;;;;;;;;;4914088;29;20236;-60
2022/11/03 07:58:18;;;;;;;5.70;2.00;;;;;;;;;;4914148;29;20248;-60
2022/11/03 08:00:45;;;;;;;4.17;2.30;;;;;;;;;;4914199;29;20227;-60
2022/11/03 08:03:17;;;;;;;3.10;2.20;;;;;;;;;;4913882;29;20706;-60
2022/11/03 08:05:44;;;;;;;3.70;2.33;;;;;;;;;;4913581;29;20316;-60
2022/11/03 08:08:11;;;;;;;4.27;2.27;;;;;;;;;;4914070;29;20228;-60
2022/11/03 08:10:38;;;;;;;4.20;3.13;;;;;;;;;;4914160;29;20204;-61
2022/11/03 08:13:06;;;;;;;6.80;1.80;;;;;;;;;;4913975;29;20212;-61
2022/11/03 08:15:33;;;;;;;4.90;2.10;;;;;;;;;;4914203;29;20228;-61
2022/11/03 08:18:00;;;;;;;5.37;2.10;;;;;;;;;;4914082;29;20231;-61
2022/11/03 08:20:27;;;;;;;3.53;2.07;;;;;;;;;;4913432;29;20671;-61
2022/11/03 08:22:55;;;;;;;3.00;2.30;;;;;;;;;;4913367;29;20220;-61
2022/11/03 08:25:22;;;;;;;3.50;2.40;;;;;;;;;;4899501;29;20220;-62
2022/11/03 08:27:49;;;;;;;7.83;2.07;;;;;;;;;;4892928;29;20216;-62
2022/11/03 08:30:17;;;;;;;7.80;2.00;;;;;;;;;;4894548;29;20685;-61
2022/11/03 08:32:45;;;;;;;2.57;2.20;;;;;;;;;;4894532;29;20216;-61
2022/11/03 08:35:12;;;;;;;5.60;1.90;;;;;;;;;;4894502;29;20755;-62
2022/11/03 08:37:39;;;;;;;2.27;2.07;;;;;;;;;;4894592;29;20680;-70
2022/11/03 08:40:06;;;;;;;3.17;2.03;;;;;;;;;;4905391;29;20231;-62
2022/11/03 08:42:33;;;;;;;5.40;1.83;;;;;;;;;;4912854;29;20208;-61
2022/11/03 08:45:01;;;;;;;4.27;2.27;;;;;;;;;;4913277;29;20212;-62
2022/11/03 08:47:29;;;;;;;2.50;1.90;;;;;;;;;;4912648;29;20212;-69
2022/11/03 08:49:56;;;;;;;5.93;1.93;;;;;;;;;;4913048;29;20216;-62
2022/11/03 08:52:23;;;;;;;2.40;2.23;;;;;;;;;;4912635;29;20216;-61
2022/11/03 08:54:50;;;;;;;6.77;2.37;;;;;;;;;;4913231;29;20605;-63
2022/11/03 08:57:17;;;;;;;3.73;1.60;;;;;;;;;;4913088;29;20244;-63
2022/11/03 08:59:44;;;;;;;6.07;2.10;;;;;;;;;;4912957;29;20208;-63
2022/11/03 09:02:11;;;;;;;3.07;1.93;;;;;;;;;;4912280;29;20675;-63
2022/11/03 09:04:40;;;;;;;3.37;2.00;;;;;;;;;;4913005;29;20214;-62
2022/11/03 09:07:10;;;;;;;4.57;2.37;;;;;;;;;;4913130;29;20212;-62
2022/11/03 09:09:37;;;;;;;1.97;1.83;;;;;;;;;;4907429;29;20212;-63
2022/11/03 09:12:04;;;;;;;3.43;2.40;;;;;;;;;;4912702;29;20216;-62
2022/11/03 09:14:31;;;;;;;2.97;2.47;;;;;;;;;;4911978;29;20232;-62
2022/11/03 09:16:58;;;;;;;3.17;2.87;;;;;;;;;;4911795;29;20228;-62
2022/11/03 09:19:25;;;;;;;5.97;2.93;;;;;;;;;;4912035;29;20208;-62
2022/11/03 09:21:54;;;;;;;5.40;3.57;;;;;;;;;;4911310;29;20470;-62
2022/11/03 09:24:23;;;;;;;5.63;3.13;;;;;;;;;;4911244;29;20212;-61
2022/11/03 09:26:50;;;;;;;7.13;3.43;;;;;;;;;;4912703;29;20213;-61
2022/11/03 09:29:18;;;;;;;7.23;3.33;;;;;;;;;;4912752;29;20242;-62
2022/11/03 09:31:45;;;;;;;4.37;3.07;;;;;;;;;;4896506;29;20648;-62
2022/11/03 09:34:12;;;;;;;3.40;3.10;;;;;;;;;;4906192;29;20205;-61
2022/11/03 09:36:40;;;;;;;4.23;3.37;;;;;;;;;;4910775;29;20232;-61
2022/11/03 09:39:08;;;;;;;8.03;3.77;;;;;;;;;;4910724;29;20228;-61
2022/11/03 09:41:35;;;;;;;3.53;3.23;;;;;;;;;;4908599;29;20243;-61
2022/11/03 09:44:02;;;;;;;3.57;2.70;;;;;;;;;;4911250;29;20205;-61
2022/11/03 09:46:30;;;;;;;7.23;3.50;;;;;;;;;;4910888;29;20254;-62
2022/11/03 09:48:57;;;;;;;5.57;2.77;;;;;;;;;;4911824;29;20215;-62
2022/11/03 09:51:25;;;;;;;7.47;2.50;;;;;;;;;;4911889;29;20223;-61
2022/11/03 09:53:52;;;;;;;3.83;2.57;;;;;;;;;;4911795;29;20232;-61
2022/11/03 09:56:23;;;;;;;4.00;2.27;;;;;;;;;;4911671;29;20247;-61
2022/11/03 09:58:50;;;;;;;5.97;2.47;;;;;;;;;;4912021;29;20614;-61
2022/11/03 10:01:17;;;;;;;4.23;2.10;;;;;;;;;;4911285;29;20212;-62
2022/11/03 10:03:45;;;;;;;4.60;3.37;;;;;;;;;;4911743;29;20276;-59
2022/11/03 10:06:12;;;;;;;3.17;2.57;;;;;;;;;;4911306;29;20212;-60
2022/11/03 10:08:40;;;;;;;2.93;2.33;;;;;;;;;;4911523;29;20212;-62
2022/11/03 10:11:09;;;;;;;6.80;2.80;;;;;;;;;;4911642;29;20208;-64
2022/11/03 10:13:38;;;;;;;3.80;2.00;;;;;;;;;;4911101;29;20213;-66
2022/11/03 10:16:07;;;;;;;2.23;2.13;;;;;;;;;;4911550;29;20854;-66
2022/11/03 10:18:34;;;;;;;3.77;2.13;;;;;;;;;;4911372;29;20216;-60
2022/11/03 10:21:04;;;;;;;4.57;2.60;;;;;;;;;;4911544;29;20212;-61
2022/11/03 10:23:31;;;;;;;2.33;2.10;;;;;;;;;;4911855;29;20299;-61
2022/11/03 10:26:04;;;;;;;2.30;2.20;;;;;;;;;;4911170;29;20205;-62
2022/11/03 10:28:31;;;;;;;2.40;2.20;;;;;;;;;;4911415;29;20204;-61
2022/11/03 10:31:05;;;;;;;2.97;2.20;;;;;;;;;;4911307;29;20239;-61
2022/11/03 10:33:34;;;;;;;4.10;2.00;;;;;;;;;;4911169;29;20227;-62
2022/11/03 10:36:02;;;;;;;6.33;1.77;;;;;;;;;;4910970;29;20208;-62
2022/11/03 10:38:30;;;;;;;3.53;1.70;;;;;;;;;;4910860;29;20225;-62
2022/11/03 10:40:58;;;;;;;2.23;2.00;;;;;;;;;;4910859;29;20216;-59
2022/11/03 10:43:25;;;;;;;1.80;1.70;;;;;;;;;;4911390;29;20220;-61
2022/11/03 10:46:10;;;;;;;4.77;1.83;;;;;;;;;;4909104;29;20227;-61
2022/11/03 10:48:38;;;;;;;2.93;1.83;;;;;;;;;;4910437;29;20248;-60
2022/11/03 10:51:05;;;;;;;3.90;1.60;;;;;;;;;;4907941;29;20213;-61
2022/11/03 10:53:32;;;;;;;2.43;1.60;;;;;;;;;;4908458;29;20204;-60
2022/11/03 10:56:00;;;;;;;3.73;1.57;;;;;;;;;;4908598;29;20235;-60
2022/11/03 10:58:27;;;;;;;2.57;1.93;;;;;;;;;;4900840;29;20254;-60
2022/11/03 11:00:54;;;;;;;4.30;2.03;;;;;;;;;;4909449;29;20216;-61
2022/11/03 11:03:21;;;;;;;2.10;1.90;;;;;;;;;;4909727;29;20720;-61
2022/11/03 11:05:50;;;;;;;2.20;1.90;;;;;;;;;;4909108;29;20208;-60
2022/11/03 11:08:21;;;;;;;3.13;1.50;;;;;;;;;;4909947;29;20239;-60
2022/11/03 11:10:48;;;;;;;4.63;2.43;;;;;;;;;;4909889;29;20212;-60
2022/11/03 11:13:25;;;;;;;4.53;1.60;;;;;;;;;;4909737;29;20220;-60
2022/11/03 11:15:53;;;;;;;2.33;2.13;;;;;;;;;;4909248;29;20663;-60
2022/11/03 11:18:39;;;;;;;3.47;2.10;;;;;;;;;;4909278;29;20679;-60
2022/11/03 11:21:31;;;;;;;2.47;2.27;;;;;;;;;;4910091;29;20208;-60
2022/11/03 11:23:59;;;;;;;4.73;1.70;;;;;;;;;;4903040;29;20307;-60
2022/11/03 11:26:34;;;;;;;2.50;2.20;;;;;;;;;;4909483;29;20208;-60
2022/11/03 11:29:20;;;;;;;8.67;3.13;;;;;;;;;;4913135;29;20212;-60
2022/11/03 11:31:47;;;;;;;2.23;2.00;;;;;;;;;;4913364;29;20208;-60
2022/11/03 11:34:33;;;;;;;4.70;2.03;;;;;;;;;;4913128;29;20223;-60
2022/11/03 11:37:19;;;;;;;3.53;2.40;;;;;;;;;;4913007;29;20232;-62
2022/11/03 11:39:47;;;;;;;4.87;2.63;;;;;;;;;;4918203;29;20216;-69
2022/11/03 11:42:16;;;;;;;5.00;2.10;;;;;;;;;;4924739;29;20698;-61
2022/11/03 11:45:02;;;;;;;2.90;2.50;;;;;;;;;;4910283;29;20216;-64
2022/11/03 11:47:42;;;;;;;5.77;2.93;;;;;;;;;;4913269;29;20220;-64
2022/11/03 11:50:33;;;;;;;3.00;2.57;;;;;;;;;;4913653;29;20207;-65
2022/11/03 11:53:05;;;;;;;5.57;2.33;;;;;;;;;;4905651;29;20223;-66
2022/11/03 11:55:38;;;;;;;2.83;2.23;;;;;;;;;;4908396;29;20243;-65
2022/11/03 11:58:06;;;;;;;4.67;2.57;;;;;;;;;;4913950;29;20247;-63
2022/11/03 12:00:35;;;;;;;2.67;2.17;;;;;;;;;;4913057;29;20231;-66
2022/11/03 12:03:03;;;;;;;5.23;2.53;;;;;;;;;;4913329;29;20223;-65
2022/11/03 12:05:31;;;;;;;2.67;2.37;;;;;;;;;;4907488;29;20579;-66
2022/11/03 12:07:58;;;;;;;3.57;2.07;;;;;;;;;;4905149;29;20247;-65
2022/11/03 12:10:26;;;;;;;11.63;2.43;;;;;;;;;;4912636;29;20238;-64
2022/11/03 12:12:55;;;;;;;5.67;4.80;;;;;;;;;;4910598;29;20813;-65
2022/11/03 12:15:41;;;;;;;2.63;2.23;;;;;;;;;;4903331;29;20213;-65
2022/11/03 12:18:23;;;;;;;3.53;2.90;;;;;;;;;;4910944;29;20232;-65
2022/11/03 12:20:50;;;;;;;2.57;2.37;;;;;;;;;;4911314;29;20208;-65
2022/11/03 12:23:32;;;;;;;5.60;2.47;;;;;;;;;;4908968;29;20617;-65
2022/11/03 12:25:59;;;;;;;5.87;2.30;;;;;;;;;;4912991;29;20298;-64
2022/11/03 12:28:36;;;;;;;1.90;1.80;;;;;;;;;;4913066;29;20204;-70
2022/11/03 12:31:03;;;;;;;4.43;2.53;;;;;;;;;;4911858;29;20219;-63
2022/11/03 12:33:30;;;;;;;8.77;2.50;;;;;;;;;;4912420;29;20223;-72
2022/11/03 12:35:58;;;;;;;3.47;2.63;;;;;;;;;;4912647;29;20215;-60
2022/11/03 12:38:25;;;;;;;2.10;2.00;;;;;;;;;;4904878;29;20240;-60
2022/11/03 12:40:53;;;;;;;2.33;2.23;;;;;;;;;;4912722;29;20212;-60
2022/11/03 12:43:20;;;;;;;3.43;2.03;;;;;;;;;;4912876;29;20275;-61
2022/11/03 12:45:49;;;;;;;6.93;2.10;;;;;;;;;;4911864;29;20216;-61
2022/11/03 12:48:16;;;;;;;2.13;2.00;;;;;;;;;;4893561;29;20231;-60
2022/11/03 12:50:43;;;;;;;3.30;2.20;;;;;;;;;;4893881;29;20308;-61
2022/11/03 12:53:10;;;;;;;4.87;2.13;;;;;;;;;;4904163;29;20219;-61
2022/11/03 12:55:40;;;;;;;4.00;2.30;;;;;;;;;;4913484;29;20323;-61
2022/11/03 12:58:07;;;;;;;1.93;1.83;;;;;;;;;;4910059;29;20248;-61
2022/11/03 13:00:34;;;;;;;6.07;1.90;;;;;;;;;;4910733;29;20212;-61
2022/11/03 13:03:02;;;;;;;1.80;1.60;;;;;;;;;;4912238;29;20216;-61
2022/11/03 13:05:30;;;;;;;3.93;2.33;;;;;;;;;;4912335;29;20212;-61
2022/11/03 13:07:57;;;;;;;3.33;2.30;;;;;;;;;;4911848;29;20209;-62
2022/11/03 13:10:24;;;;;;;3.97;2.57;;;;;;;;;;4912092;29;20213;-61
2022/11/03 13:12:51;;;;;;;2.30;2.10;;;;;;;;;;4912130;29;20219;-61
2022/11/03 13:15:18;;;;;;;6.33;2.47;;;;;;;;;;4911497;29;20618;-62
2022/11/03 13:17:45;;;;;;;3.63;2.07;;;;;;;;;;4912079;29;20240;-61
2022/11/03 13:20:15;;;;;;;2.00;1.70;;;;;;;;;;4911412;29;20204;-62
2022/11/03 13:22:42;;;;;;;4.50;2.70;;;;;;;;;;4911873;29;20905;-61
2022/11/03 13:25:09;;;;;;;2.33;2.07;;;;;;;;;;4911997;29;20220;-61
2022/11/03 13:27:36;;;;;;;1.57;1.47;;;;;;;;;;4911907;29;20212;-61
2022/11/03 13:30:03;;;;;;;2.13;2.03;;;;;;;;;;4911557;29;20212;-62
2022/11/03 13:32:30;;;;;;;2.97;1.93;;;;;;;;;;4911638;29;20208;-61
2022/11/03 13:34:57;;;;;;;2.20;1.73;;;;;;;;;;4911651;29;20216;-61
2022/11/03 13:37:26;;;;;;;4.27;1.87;;;;;;;;;;4911324;29;20234;-61
2022/11/03 13:39:53;;;;;;;4.53;2.10;;;;;;;;;;4909630;29;20224;-61
2022/11/03 13:42:20;;;;;;;2.27;1.77;;;;;;;;;;4910458;29;20216;-61
2022/11/03 13:44:47;;;;;;;1.80;1.70;;;;;;;;;;4908243;29;20223;-61
2022/11/03 13:47:14;;;;;;;2.07;1.97;;;;;;;;;;4910771;29;20204;-61
2022/11/03 13:49:41;;;;;;;2.10;1.80;;;;;;;;;;4902284;29;20216;-60
2022/11/03 13:52:08;;;;;;;3.50;2.10;;;;;;;;;;4907882;29;20214;-61
2022/11/03 13:54:37;;;;;;;2.90;2.17;;;;;;;;;;4905371;29;20727;-61
2022/11/03 13:57:04;;;;;;;2.07;1.97;;;;;;;;;;4902410;29;20238;-61
2022/11/03 13:59:31;;;;;;;2.63;1.93;;;;;;;;;;4905674;29;20213;-61
2022/11/03 14:01:59;;;;;;;2.03;1.80;;;;;;;;;;4909466;29;20214;-61
2022/11/03 14:04:26;;;;;;;2.70;1.60;;;;;;;;;;4905676;29;20224;-59
2022/11/03 14:06:53;;;;;;;5.13;2.00;;;;;;;;;;4910838;29;20216;-61
2022/11/03 14:09:20;;;;;;;2.67;2.23;;;;;;;;;;4904668;29;20215;-61
2022/11/03 14:14:33;;;;;;;5.27;2.10;;;;;;;;;;4906487;29;20216;-61
2022/11/03 14:17:00;;;;;;;4.03;1.50;;;;;;;;;;4910615;29;20208;-62
2022/11/03 14:19:27;;;;;;;4.87;1.83;;;;;;;;;;4908056;29;20589;-60
2022/11/03 14:21:54;;;;;;;3.07;2.13;;;;;;;;;;4900379;29;20212;-67
2022/11/03 14:24:21;;;;;;;5.20;2.40;;;;;;;;;;4910678;29;20295;-61
2022/11/03 14:26:50;;;;;;;1.83;1.83;;;;;;;;;;4901275;29;20223;-72
2022/11/03 14:29:17;;;;;;;4.97;1.37;;;;;;;;;;4909409;29;20805;-61
2022/11/03 14:31:44;;;;;;;1.63;1.53;;;;;;;;;;4907289;29;20209;-62
2022/11/03 14:34:11;;;;;;;1.47;1.37;;;;;;;;;;4907536;29;20305;-62
2022/11/03 14:36:38;;;;;;;3.27;1.70;;;;;;;;;;4907327;29;20675;-62
2022/11/03 14:39:05;;;;;;;1.83;1.67;;;;;;;;;;4902078;29;20236;-62
2022/11/03 14:44:18;;;;;;;5.70;1.70;;;;;;;;;;4906789;29;20232;-62
2022/11/03 14:46:46;;;;;;;4.20;2.23;;;;;;;;;;4909501;29;20223;-62
2022/11/03 14:49:13;;;;;;;3.13;1.70;;;;;;;;;;4910518;29;20746;-61
2022/11/03 14:51:40;;;;;;;3.00;1.70;;;;;;;;;;4905710;29;20212;-62
2022/11/03 14:54:07;;;;;;;4.17;2.00;;;;;;;;;;4907947;29;20236;-63
2022/11/03 14:56:34;;;;;;;2.13;1.93;;;;;;;;;;4906787;29;20676;-64
2022/11/03 14:59:01;;;;;;;3.13;1.80;;;;;;;;;;4903580;29;20239;-62
2022/11/03 15:01:30;;;;;;;1.60;1.50;;;;;;;;;;4901062;29;20228;-60
2022/11/03 15:03:57;;;;;;;1.93;1.43;;;;;;;;;;4900877;29;20209;-63
2022/11/03 15:06:24;;;;;;;1.63;1.53;;;;;;;;;;4907793;29;20231;-60
2022/11/03 15:08:51;;;;;;;3.40;1.57;;;;;;;;;;4909797;29;20204;-60
2022/11/03 15:11:18;;;;;;;7.60;1.50;;;;;;;;;;4909936;29;20208;-62
2022/11/03 15:13:45;;;;;;;8.43;2.53;;;;;;;;;;4905719;29;20289;-61
2022/11/03 15:16:12;;;;;;;2.80;1.23;;;;;;;;;;4900846;29;20216;-63
2022/11/03 15:18:42;;;;;;;2.17;1.00;;;;;;;;;;4903684;29;20224;-61